Time;durP1;ratioP1;P1;durP2;ratioP2;P2;SDS_P1;SDS_P2;PMS_P1;PMS_P2;Temp;Humidity;BMP_temperature;BMP_pressure;BME280_temperature;BME280_humidity;BME280_pressure;Samples;Min_cycle;Max_cycle;Signal;HPM_P1;HPM_P2
2023/06/09 00:00:00;;;;;;;8.80;3.92;;;;;;;17.27;76.91;93760.25;5396218;23;20394;-90
2023/06/09 00:02:28;;;;;;;9.77;4.28;;;;;;;17.28;76.22;93766.41;5004758;28;20089;-90
2023/06/09 00:04:56;;;;;;;10.60;4.05;;;;;;;17.22;75.36;93758.63;5004642;28;20026;-88
2023/06/09 00:07:22;;;;;;;10.18;3.80;;;;;;;17.16;75.33;93751.97;5007851;28;20018;-87
2023/06/09 00:09:55;;;;;;;27.70;6.10;;;;;;;17.15;75.71;93752.31;5007618;28;20093;-87
2023/06/09 00:12:20;;;;;;;6.65;3.65;;;;;;;17.15;76.02;93750.41;5007707;28;20094;-87
2023/06/09 00:14:46;;;;;;;8.90;4.70;;;;;;;17.15;76.20;93760.41;5007775;28;20208;-88
2023/06/09 00:17:13;;;;;;;12.70;4.60;;;;;;;17.16;76.27;93764.66;5007657;28;20025;-88
2023/06/09 00:19:41;;;;;;;14.50;4.68;;;;;;;17.16;75.89;93757.38;5007450;28;20027;-88
2023/06/09 00:22:13;;;;;;;8.93;3.88;;;;;;;17.15;75.97;93760.41;5008595;28;20046;-88
2023/06/09 00:24:39;;;;;;;16.40;5.15;;;;;;;17.15;76.72;93763.09;4990929;28;20398;-88
2023/06/09 00:27:08;;;;;;;10.50;4.82;;;;;;;17.11;76.71;93763.03;4990655;28;20033;-88
2023/06/09 00:29:33;;;;;;;9.88;3.90;;;;;;;17.10;77.27;93761.47;4990896;28;20030;-88
2023/06/09 00:31:59;;;;;;;22.95;4.82;;;;;;;17.11;77.78;93757.63;4990795;28;20080;-88
2023/06/09 00:34:27;;;;;;;12.70;4.70;;;;;;;17.06;78.17;93755.25;5008748;28;20022;-88
2023/06/09 00:36:53;;;;;;;9.23;4.50;;;;;;;17.04;78.10;93754.81;5009805;28;20057;-89
2023/06/09 00:39:27;;;;;;;7.75;4.13;;;;;;;16.98;78.23;93754.34;5011220;28;20026;-88
2023/06/09 00:41:58;;;;;;;8.77;4.43;;;;;;;16.98;77.77;93745.47;4995584;28;20026;-89
2023/06/09 00:44:26;;;;;;;17.08;4.00;;;;;;;16.98;78.25;93754.34;5013366;28;20021;-87
2023/06/09 00:46:52;;;;;;;8.52;4.18;;;;;;;16.97;78.25;93754.69;5005916;28;20029;-87
2023/06/09 00:49:18;;;;;;;14.68;4.63;;;;;;;16.96;78.89;93756.59;5006829;28;20332;-87
2023/06/09 00:51:47;;;;;;;9.68;4.13;;;;;;;16.93;78.51;93756.53;5006850;28;20018;-88
2023/06/09 00:54:12;;;;;;;8.95;4.00;;;;;;;16.91;78.22;93764.19;4989590;28;20018;-88
2023/06/09 00:56:39;;;;;;;13.95;4.18;;;;;;;16.88;78.63;93749.53;5006554;28;20205;-87
2023/06/09 00:59:08;;;;;;;7.35;3.63;;;;;;;16.87;78.38;93753.34;5006740;28;20117;-87
2023/06/09 01:01:34;;;;;;;6.35;4.20;;;;;;;16.82;78.54;93756.31;5007084;28;20018;-88
2023/06/09 01:04:00;;;;;;;11.15;4.78;;;;;;;16.80;78.32;93753.19;5007004;28;20026;-87
2023/06/09 01:06:56;;;;;;;11.07;4.68;;;;;;;16.79;78.43;93752.41;5006563;28;20052;-87
2023/06/09 01:09:38;;;;;;;7.72;3.90;;;;;;;16.74;78.40;93759.97;5006385;28;20034;-87
2023/06/09 01:12:22;;;;;;;;;;;;;;;16.68;78.29;93754.09;5006864;28;20041;-87
2023/06/09 01:14:58;;;;;;;13.20;4.32;;;;;;;16.62;78.50;93748.22;5006421;28;19981;-87
2023/06/09 01:17:28;;;;;;;7.95;4.10;;;;;;;16.60;78.74;93747.00;5005869;28;20259;-88
2023/06/09 01:19:57;;;;;;;8.80;4.05;;;;;;;16.59;78.72;93753.53;4989097;28;20026;-88
2023/06/09 01:22:44;;;;;;;10.20;4.00;;;;;;;16.50;78.72;93751.03;5006706;28;20035;-88
2023/06/09 01:25:26;;;;;;;8.20;3.97;;;;;;;16.48;78.67;93747.16;4989041;28;20041;-88
2023/06/09 01:27:57;;;;;;;16.35;4.10;;;;;;;16.42;78.43;93749.31;4989468;28;20030;-88
2023/06/09 01:30:29;;;;;;;7.03;4.18;;;;;;;16.39;78.28;93747.34;5006456;28;20228;-88
2023/06/09 01:33:00;;;;;;;8.80;4.50;;;;;;;16.39;78.60;93755.44;5006159;28;20026;-88
2023/06/09 01:35:27;;;;;;;15.87;4.13;;;;;;;16.36;78.23;93748.81;5006094;28;20030;-87
2023/06/09 01:37:55;;;;;;;7.57;4.40;;;;;;;16.34;78.21;93763.75;4988987;28;20026;-87
2023/06/09 01:40:20;;;;;;;10.07;3.78;;;;;;;16.33;78.15;93760.28;4988666;28;20026;-88
2023/06/09 01:42:46;;;;;;;12.95;4.00;;;;;;;16.28;77.41;93762.47;5006075;28;20263;-87
2023/06/09 01:45:12;;;;;;;7.80;3.83;;;;;;;16.24;77.50;93773.94;4988512;28;20228;-88
2023/06/09 01:47:40;;;;;;;10.27;3.95;;;;;;;16.22;77.63;93773.50;5006001;28;20059;-88
2023/06/09 01:50:23;;;;;;;10.13;3.75;;;;;;;16.21;77.64;93771.94;4988638;28;20030;-88
2023/06/09 01:52:58;;;;;;;10.65;4.00;;;;;;;16.20;77.39;93770.41;5005907;28;20042;-89
2023/06/09 01:55:34;;;;;;;10.57;4.88;;;;;;;16.17;77.47;93764.94;4990585;28;20034;-90
2023/06/09 01:58:22;;;;;;;7.63;4.07;;;;;;;16.16;77.71;93764.16;5006090;28;20064;-87
2023/06/09 02:00:49;;;;;;;9.20;3.95;;;;;;;16.09;77.69;93763.22;5005524;28;20049;-87
2023/06/09 02:03:20;;;;;;;8.75;4.15;;;;;;;16.07;78.39;93760.88;5005389;28;20216;-88
2023/06/09 02:05:46;;;;;;;17.90;4.40;;;;;;;16.05;78.46;93763.91;4988459;28;20038;-88
2023/06/09 02:08:13;;;;;;;8.90;4.40;;;;;;;16.02;78.27;93758.47;5004605;28;20089;-87
2023/06/09 02:10:39;;;;;;;14.32;4.07;;;;;;;16.00;78.09;93752.66;4987557;28;20321;-86
2023/06/09 02:13:13;;;;;;;10.73;4.07;;;;;;;15.96;78.02;93759.84;5003740;28;20033;-87
2023/06/09 02:15:39;;;;;;;10.93;4.90;;;;;;;15.90;77.99;93763.94;5005275;28;20018;-87
2023/06/09 02:18:09;;;;;;;17.40;5.10;;;;;;;15.87;78.40;93762.72;5005203;28;20025;-87
2023/06/09 02:20:35;;;;;;;6.93;4.70;;;;;;;15.83;78.36;93759.16;5005190;28;20316;-88
2023/06/09 02:23:00;;;;;;;11.63;4.38;;;;;;;15.78;78.71;93762.13;4988902;28;20037;-87
2023/06/09 02:25:32;;;;;;;11.65;4.43;;;;;;;15.77;78.97;93771.31;5005925;28;20034;-89
2023/06/09 02:28:00;;;;;;;11.73;4.93;;;;;;;15.67;79.08;93759.13;4989227;28;20276;-89
2023/06/09 02:30:25;;;;;;;9.30;4.75;;;;;;;15.60;79.42;93765.13;4988442;28;20333;-86
2023/06/09 02:32:51;;;;;;;10.52;5.05;;;;;;;15.62;79.56;93759.41;5005908;28;20030;-86
2023/06/09 02:35:16;;;;;;;10.10;4.18;;;;;;;15.61;79.70;93755.16;5006139;28;20045;-86
2023/06/09 02:37:42;;;;;;;15.25;4.43;;;;;;;15.60;79.91;93764.34;4988529;28;20030;-87
2023/06/09 02:40:09;;;;;;;10.10;4.68;;;;;;;15.55;80.03;93769.97;5005579;28;20164;-87
2023/06/09 02:42:34;;;;;;;11.30;4.68;;;;;;;15.51;80.18;93766.41;5005989;28;20362;-87
2023/06/09 02:45:00;;;;;;;6.95;4.22;;;;;;;15.50;80.23;93773.69;5006075;28;20030;-88
2023/06/09 02:47:26;;;;;;;12.63;4.63;;;;;;;15.50;80.04;93775.59;5006341;28;20312;-87
2023/06/09 02:49:51;;;;;;;7.88;4.32;;;;;;;15.48;79.74;93772.50;5006502;28;20026;-88
2023/06/09 02:52:17;;;;;;;14.25;4.32;;;;;;;15.43;79.87;93768.94;5005557;28;20252;-87
2023/06/09 02:54:43;;;;;;;8.20;4.72;;;;;;;15.43;79.56;93763.56;5005119;28;20251;-87
2023/06/09 02:57:09;;;;;;;15.10;5.55;;;;;;;15.40;79.95;93764.25;5004840;28;20042;-89
2023/06/09 02:59:34;;;;;;;12.43;3.95;;;;;;;15.38;80.07;93771.09;5004755;28;20034;-88
2023/06/09 03:02:00;;;;;;;8.40;4.43;;;;;;;15.36;80.04;93776.03;4987616;28;20415;-88
2023/06/09 03:04:25;;;;;;;7.78;3.85;;;;;;;15.31;80.04;93779.75;5004652;28;20224;-88
2023/06/09 03:06:53;;;;;;;7.47;4.10;;;;;;;15.27;79.81;93768.13;5004836;28;20023;-87
2023/06/09 03:09:22;;;;;;;8.10;3.95;;;;;;;15.23;79.73;93770.72;5003513;28;20033;-87
2023/06/09 03:11:47;;;;;;;11.77;4.57;;;;;;;15.20;79.96;93765.25;5004538;28;20023;-87
2023/06/09 03:14:13;;;;;;;6.75;3.80;;;;;;;15.19;79.71;93763.72;4988105;28;20102;-87
2023/06/09 03:16:39;;;;;;;10.60;4.22;;;;;;;15.22;79.54;93765.69;5009302;28;20025;-86
2023/06/09 03:19:05;;;;;;;14.40;4.25;;;;;;;15.19;79.74;93759.13;5009198;28;20022;-88
2023/06/09 03:21:35;;;;;;;8.63;3.67;;;;;;;15.13;79.75;93762.41;5008251;28;20034;-87
2023/06/09 03:24:03;;;;;;;10.38;4.50;;;;;;;15.08;80.25;93760.72;5010132;28;20033;-86
2023/06/09 03:26:28;;;;;;;7.95;3.83;;;;;;;15.09;80.48;93759.63;4992992;28;20023;-86
2023/06/09 03:28:54;;;;;;;11.20;4.53;;;;;;;15.10;80.61;93753.13;5009413;28;20289;-86
2023/06/09 03:31:20;;;;;;;6.75;4.13;;;;;;;15.10;80.73;93752.34;4993656;28;20026;-86
2023/06/09 03:33:45;;;;;;;7.75;4.30;;;;;;;15.13;81.13;93757.03;4991838;28;20022;-86
2023/06/09 03:36:11;;;;;;;7.50;4.22;;;;;;;15.15;80.94;93754.78;5008005;28;20029;-86
2023/06/09 03:39:00;;;;;;;10.90;4.72;;;;;;;15.16;81.03;93759.81;5006378;28;20259;-87
2023/06/09 03:41:26;;;;;;;9.25;4.13;;;;;;;15.22;80.48;93760.31;5003607;28;20038;-87
2023/06/09 03:43:52;;;;;;;9.23;3.78;;;;;;;15.20;80.09;93759.88;4992162;28;20230;-89
2023/06/09 03:46:17;;;;;;;14.95;4.57;;;;;;;15.20;80.32;93759.88;5008809;28;20038;-85
2023/06/09 03:48:43;;;;;;;14.60;4.05;;;;;;;15.22;80.06;93765.69;5005194;28;20313;-86
2023/06/09 03:51:08;;;;;;;8.93;4.40;;;;;;;15.22;79.52;93766.50;4987941;28;20193;-88
2023/06/09 03:53:34;;;;;;;9.32;5.00;;;;;;;15.23;78.87;93762.66;4986868;28;20033;-89
2023/06/09 03:55:59;;;;;;;11.52;4.63;;;;;;;15.28;78.99;93769.69;5004064;28;20041;-87
2023/06/09 03:58:27;;;;;;;13.45;5.50;;;;;;;15.31;79.23;93760.19;4986790;28;20264;-88
2023/06/09 04:01:20;;;;;;;9.68;5.00;;;;;;;15.34;78.68;93771.00;4977398;28;20069;-89
2023/06/09 04:04:09;;;;;;;;;;;;;;;;;;;;;
2023/06/09 04:06:55;;;;;;;;;;;;;;;;;;;;;
2023/06/09 04:12:17;;;;;;;14.38;4.70;;;;;;;15.39;77.35;93780.72;5526482;23;20048;-90
2023/06/09 04:14:43;;;;;;;10.77;5.38;;;;;;;15.39;77.06;93778.81;5012863;28;20026;-90
2023/06/09 04:17:11;;;;;;;12.98;5.53;;;;;;;15.46;77.21;93786.25;5014192;28;20026;-90
2023/06/09 04:19:37;;;;;;;18.65;5.78;;;;;;;15.45;77.19;93790.09;5010117;28;20030;-89
2023/06/09 04:22:07;;;;;;;14.75;5.32;;;;;;;15.56;77.73;93779.59;5011179;28;20042;-88
2023/06/09 04:24:33;;;;;;;10.95;5.20;;;;;;;15.64;77.46;93779.41;5005794;28;20033;-88
2023/06/09 04:27:01;;;;;;;9.85;5.93;;;;;;;15.71;76.94;93792.25;4988508;28;20193;-88
2023/06/09 04:29:28;;;;;;;20.65;5.47;;;;;;;15.79;77.12;93785.97;5005080;28;20026;-89
2023/06/09 04:31:58;;;;;;;19.25;7.35;;;;;;;15.84;75.90;93788.38;4987598;28;20093;-87
2023/06/09 04:34:31;;;;;;;10.05;5.40;;;;;;;15.88;75.95;93782.31;5005441;28;20022;-89
2023/06/09 04:36:59;;;;;;;16.67;6.05;;;;;;;15.96;76.30;93786.75;5011784;28;20058;-89
2023/06/09 04:39:25;;;;;;;8.52;5.15;;;;;;;16.06;76.32;93791.59;5005838;28;20037;-83
2023/06/09 04:41:53;;;;;;;9.73;5.10;;;;;;;16.16;77.02;93791.03;5004494;28;20026;-83
2023/06/09 04:44:20;;;;;;;8.65;5.40;;;;;;;16.17;77.05;93794.50;5004915;28;20094;-83
2023/06/09 04:46:46;;;;;;;8.93;5.20;;;;;;;16.27;76.78;93787.81;5003973;28;20089;-81
2023/06/09 04:49:12;;;;;;;17.55;5.70;;;;;;;16.37;76.41;93796.13;4987093;28;20044;-83
2023/06/09 04:51:46;;;;;;;17.15;5.80;;;;;;;16.39;76.04;93793.09;5004332;28;20022;-82
2023/06/09 04:54:16;;;;;;;15.45;5.97;;;;;;;16.39;75.75;93793.84;5007645;28;20247;-83
2023/06/09 04:56:52;;;;;;;13.23;5.72;;;;;;;16.50;75.34;93804.84;4989840;28;20041;-82
2023/06/09 04:59:21;;;;;;;12.40;6.03;;;;;;;16.53;73.27;93798.78;4989166;28;20034;-83
2023/06/09 05:01:47;;;;;;;8.70;4.90;;;;;;;16.51;71.47;93801.03;5006332;28;20074;-84
2023/06/09 05:04:13;;;;;;;11.38;5.47;;;;;;;16.63;71.78;93795.53;5006439;28;20306;-84
2023/06/09 05:06:38;;;;;;;16.05;4.63;;;;;;;16.68;69.59;93799.06;5006033;28;20054;-84
2023/06/09 05:09:05;;;;;;;14.90;5.78;;;;;;;16.72;69.21;93798.00;5005714;28;20026;-84
2023/06/09 05:11:30;;;;;;;11.73;5.15;;;;;;;16.73;68.10;93796.88;5004554;28;20065;-83
2023/06/09 05:13:56;;;;;;;14.45;5.20;;;;;;;16.78;66.65;93785.81;5004867;28;20034;-82
2023/06/09 05:16:25;;;;;;;15.82;4.63;;;;;;;16.81;65.96;93803.19;5005647;28;20312;-82
2023/06/09 05:18:52;;;;;;;14.27;4.78;;;;;;;16.85;65.74;93793.28;5006076;28;20030;-83
2023/06/09 05:21:17;;;;;;;18.45;4.88;;;;;;;16.88;65.35;93791.81;5005610;28;20026;-82
2023/06/09 05:23:42;;;;;;;16.30;6.90;;;;;;;16.91;64.25;93786.47;5005403;28;20252;-83
2023/06/09 05:26:08;;;;;;;10.77;4.45;;;;;;;16.99;63.65;93796.25;5006388;28;20026;-81
2023/06/09 05:28:33;;;;;;;9.93;5.18;;;;;;;17.00;63.90;93800.53;5006495;28;20260;-82
2023/06/09 05:30:59;;;;;;;13.50;5.13;;;;;;;17.07;63.58;93788.34;4988739;28;20034;-81
2023/06/09 05:33:25;;;;;;;10.30;4.93;;;;;;;17.11;63.39;93791.88;5006112;28;20252;-83
2023/06/09 05:35:50;;;;;;;14.07;4.95;;;;;;;17.15;62.30;93788.09;5006004;28;20022;-82
2023/06/09 05:38:16;;;;;;;13.25;5.30;;;;;;;17.20;62.29;93793.22;4988929;28;20085;-83
2023/06/09 05:40:41;;;;;;;14.85;5.28;;;;;;;17.20;62.09;93787.06;5006068;28;20030;-83
2023/06/09 05:43:07;;;;;;;9.82;4.68;;;;;;;17.24;62.06;93790.59;5006137;28;20026;-82
2023/06/09 05:45:32;;;;;;;10.95;4.75;;;;;;;17.31;62.46;93774.56;5005920;28;20320;-82
2023/06/09 05:47:58;;;;;;;10.98;4.30;;;;;;;17.42;61.79;93780.13;4988651;28;20343;-84
2023/06/09 05:50:23;;;;;;;16.55;4.68;;;;;;;17.44;61.14;93784.03;5006098;28;20018;-83
2023/06/09 05:52:49;;;;;;;10.90;4.18;;;;;;;17.58;60.50;93785.41;5012163;28;20098;-83
2023/06/09 05:55:17;;;;;;;15.20;5.00;;;;;;;17.69;60.72;93780.19;5006289;28;20077;-83
2023/06/09 05:57:44;;;;;;;12.43;5.82;;;;;;;17.77;58.99;93781.91;4987763;28;20026;-83
2023/06/09 06:00:10;;;;;;;16.77;4.70;;;;;;;17.82;58.59;93787.75;5005234;28;20030;-83
2023/06/09 06:02:38;;;;;;;10.52;4.85;;;;;;;17.82;59.06;93782.34;5004545;28;20343;-83
2023/06/09 06:05:33;;;;;;;8.23;3.63;;;;;;;17.87;57.82;93777.81;5005038;28;20351;-88
2023/06/09 06:07:59;;;;;;;24.05;6.68;;;;;;;17.92;59.28;93772.16;4986137;28;20112;-87
2023/06/09 06:10:24;;;;;;;17.15;6.05;;;;;;;18.00;60.62;93771.88;5006196;28;20030;-83
2023/06/09 06:12:50;;;;;;;11.48;5.40;;;;;;;18.07;60.06;93773.13;5005588;28;20046;-84
2023/06/09 06:15:16;;;;;;;13.40;5.28;;;;;;;18.12;59.85;93770.91;5007434;28;20022;-82
2023/06/09 06:17:41;;;;;;;15.32;5.10;;;;;;;18.19;60.50;93773.69;5006263;28;20026;-83
2023/06/09 06:20:07;;;;;;;11.98;5.25;;;;;;;18.27;60.09;93763.03;4987645;28;20312;-83
2023/06/09 06:22:33;;;;;;;10.98;4.28;;;;;;;18.32;60.02;93763.50;5005509;28;20032;-83
2023/06/09 06:24:58;;;;;;;11.73;4.65;;;;;;;18.46;60.00;93768.31;5004998;28;20286;-85
2023/06/09 06:27:23;;;;;;;24.27;5.93;;;;;;;18.59;59.86;93764.25;5003330;28;20022;-84
2023/06/09 06:29:49;;;;;;;14.40;4.68;;;;;;;18.68;59.89;93765.88;5003187;28;20343;-84
2023/06/09 06:32:15;;;;;;;20.08;4.85;;;;;;;18.78;59.69;93767.94;5002780;28;20030;-85
2023/06/09 06:34:41;;;;;;;9.65;4.47;;;;;;;18.88;59.62;93766.56;4985459;28;20145;-86
2023/06/09 06:37:07;;;;;;;7.82;4.20;;;;;;;19.00;59.64;93767.06;5002610;28;20308;-86
2023/06/09 06:39:32;;;;;;;9.57;4.20;;;;;;;19.15;58.44;93762.63;4985667;28;20038;-85
2023/06/09 06:41:58;;;;;;;8.43;4.25;;;;;;;19.19;58.44;93762.66;5003791;28;20233;-85
2023/06/09 06:44:23;;;;;;;19.58;4.47;;;;;;;19.24;57.78;93768.50;4986950;28;20022;-84
2023/06/09 06:46:50;;;;;;;10.10;4.18;;;;;;;19.22;57.73;93764.63;4986991;28;20046;-86
2023/06/09 06:49:16;;;;;;;8.40;3.97;;;;;;;19.30;56.81;93770.88;5004772;28;20377;-86
2023/06/09 06:51:41;;;;;;;7.93;4.40;;;;;;;19.32;56.55;93768.59;5004959;28;20079;-86
2023/06/09 06:54:09;;;;;;;12.25;4.40;;;;;;;19.35;56.37;93765.13;5004257;28;20073;-86
2023/06/09 06:56:34;;;;;;;9.52;4.22;;;;;;;19.37;55.08;93762.84;5003705;28;20085;-85
2023/06/09 06:59:00;;;;;;;10.52;3.80;;;;;;;19.37;55.54;93757.44;4986842;28;20228;-85
2023/06/09 07:01:28;;;;;;;12.15;4.20;;;;;;;19.41;56.57;93767.13;5004092;28;20026;-86
2023/06/09 07:03:56;;;;;;;17.70;4.40;;;;;;;19.52;56.93;93766.44;4986825;28;20030;-86
2023/06/09 07:06:21;;;;;;;22.25;4.90;;;;;;;19.62;56.52;93771.19;4986664;28;20028;-86
2023/06/09 07:08:54;;;;;;;11.25;3.78;;;;;;;19.63;56.41;93761.94;5004003;28;20030;-85
2023/06/09 07:11:19;;;;;;;16.52;4.93;;;;;;;19.68;56.47;93764.28;5003832;28;20350;-86
2023/06/09 07:13:45;;;;;;;12.52;4.00;;;;;;;19.80;56.33;93764.06;4986559;28;20050;-86
2023/06/09 07:16:21;;;;;;;11.95;4.35;;;;;;;19.91;55.60;93766.06;4985859;28;20022;-85
2023/06/09 07:18:46;;;;;;;11.52;4.90;;;;;;;19.94;54.95;93771.50;5003858;28;20022;-85
2023/06/09 07:21:21;;;;;;;12.80;4.40;;;;;;;20.01;53.88;93762.69;4986342;28;20018;-86
2023/06/09 07:23:46;;;;;;;9.93;3.85;;;;;;;20.06;54.08;93756.13;4986191;28;20022;-86
2023/06/09 07:26:11;;;;;;;10.20;3.85;;;;;;;20.19;55.22;93765.47;5003473;28;20053;-85
2023/06/09 07:28:44;;;;;;;15.63;4.15;;;;;;;20.27;53.96;93763.59;5003515;28;20026;-84
2023/06/09 07:31:11;;;;;;;9.65;3.83;;;;;;;20.33;54.39;93764.81;5002428;28;20026;-87
2023/06/09 07:33:43;;;;;;;19.02;4.53;;;;;;;20.39;54.27;93763.31;5001853;28;20101;-85
2023/06/09 07:36:10;;;;;;;16.13;4.43;;;;;;;20.42;53.81;93759.84;5001819;28;20081;-85
2023/06/09 07:38:38;;;;;;;8.32;3.80;;;;;;;20.46;53.18;93757.94;5001900;28;20104;-83
2023/06/09 07:41:05;;;;;;;16.17;4.00;;;;;;;20.51;52.58;93756.81;4985150;28;20343;-84
2023/06/09 07:43:31;;;;;;;7.13;3.25;;;;;;;20.61;52.08;93758.81;5003198;28;20379;-84
2023/06/09 07:45:57;;;;;;;11.80;3.42;;;;;;;20.78;52.82;93754.63;5003314;28;20030;-84
2023/06/09 07:48:28;;;;;;;11.23;3.80;;;;;;;20.90;52.98;93748.88;4986282;28;20022;-83
2023/06/09 07:50:54;;;;;;;9.95;3.63;;;;;;;20.95;51.99;93759.38;5003789;28;20029;-85
2023/06/09 07:53:22;;;;;;;20.35;4.38;;;;;;;21.04;51.27;93759.00;5003742;28;20014;-86
2023/06/09 07:55:51;;;;;;;15.13;4.30;;;;;;;21.11;51.42;93759.03;5003523;28;20316;-86
2023/06/09 07:58:16;;;;;;;12.52;3.28;;;;;;;21.25;50.98;93758.31;4986039;28;20033;-85
2023/06/09 08:00:42;;;;;;;8.30;4.70;;;;;;;21.36;51.35;93752.91;5003474;28;20018;-86
2023/06/09 08:03:07;;;;;;;8.93;3.67;;;;;;;21.50;50.93;93752.97;4986058;28;20046;-85
2023/06/09 08:05:36;;;;;;;6.47;3.35;;;;;;;21.61;49.27;93752.97;4986104;28;20015;-87
2023/06/09 08:08:01;;;;;;;16.83;4.75;;;;;;;21.66;49.83;93749.91;4986045;28;20026;-87
2023/06/09 08:10:27;;;;;;;10.25;3.70;;;;;;;21.78;51.10;93746.81;4986299;28;20022;-85
2023/06/09 08:12:59;;;;;;;13.15;3.75;;;;;;;21.91;50.86;93744.47;5003229;28;20358;-87
2023/06/09 08:15:25;;;;;;;9.35;4.22;;;;;;;22.06;50.50;93747.94;5003220;28;20025;-88
2023/06/09 08:17:50;;;;;;;10.88;4.15;;;;;;;22.19;50.04;93743.69;4986135;28;20022;-88
2023/06/09 08:20:25;;;;;;;12.52;3.95;;;;;;;22.34;49.36;93740.97;5003407;28;20037;-86
2023/06/09 08:22:50;;;;;;;6.97;3.58;;;;;;;22.42;48.82;93739.78;5003419;28;20019;-86
2023/06/09 08:25:16;;;;;;;13.40;3.95;;;;;;;22.51;46.93;93742.09;5003150;28;20050;-85
2023/06/09 08:27:41;;;;;;;11.32;3.92;;;;;;;22.54;48.08;93736.66;5006582;28;20023;-84
2023/06/09 08:30:08;;;;;;;16.77;3.67;;;;;;;22.54;47.46;93735.91;5007096;28;20231;-84
2023/06/09 08:32:34;;;;;;;15.18;5.38;;;;;;;22.58;47.70;93734.72;5006892;28;20033;-85
2023/06/09 08:35:07;;;;;;;13.30;4.00;;;;;;;22.46;47.17;93726.97;5006870;28;20022;-86
2023/06/09 08:37:33;;;;;;;17.85;4.78;;;;;;;22.55;48.27;93738.22;5006816;28;20069;-85
2023/06/09 08:40:00;;;;;;;18.90;5.05;;;;;;;22.73;48.52;93742.81;4989617;28;20030;-86
2023/06/09 08:42:30;;;;;;;10.13;3.60;;;;;;;22.90;46.95;93727.59;5006629;28;20022;-84
2023/06/09 08:45:04;;;;;;;7.22;3.33;;;;;;;23.01;46.50;93731.88;5006792;28;20224;-84
2023/06/09 08:47:33;;;;;;;16.58;4.03;;;;;;;23.00;46.76;93729.53;5006712;28;20034;-85
2023/06/09 08:49:59;;;;;;;8.90;4.00;;;;;;;23.00;47.04;93724.09;5006235;28;20053;-86
2023/06/09 08:52:36;;;;;;;9.80;4.47;;;;;;;23.06;46.42;93730.69;5006645;28;20030;-86
2023/06/09 08:55:03;;;;;;;15.90;4.30;;;;;;;23.16;45.71;93726.34;5006461;28;20098;-84
2023/06/09 08:57:35;;;;;;;12.48;3.50;;;;;;;23.16;45.63;93724.44;5006430;28;20077;-87
2023/06/09 09:00:04;;;;;;;8.98;3.83;;;;;;;23.09;45.45;93718.25;5006368;28;20121;-85
2023/06/09 09:02:30;;;;;;;8.40;3.13;;;;;;;23.08;45.42;93716.69;5006488;28;20037;-87
2023/06/09 09:05:04;;;;;;;8.88;4.07;;;;;;;23.09;46.42;93720.97;5006281;28;20240;-87
2023/06/09 09:07:29;;;;;;;8.75;3.83;;;;;;;23.21;46.70;93718.56;5006264;28;20014;-84
2023/06/09 09:10:02;;;;;;;7.38;3.45;;;;;;;23.34;45.35;93718.88;5006566;28;20018;-85
2023/06/09 09:12:27;;;;;;;20.13;5.88;;;;;;;23.36;44.90;93713.81;5006340;28;20050;-86
2023/06/09 09:14:53;;;;;;;8.55;3.45;;;;;;;23.44;45.47;93725.44;5006602;28;20328;-86
2023/06/09 09:17:27;;;;;;;8.80;3.80;;;;;;;23.55;46.72;93712.53;5006326;28;20228;-87
2023/06/09 09:19:54;;;;;;;13.05;3.45;;;;;;;23.68;46.36;93712.84;5006265;28;20356;-86
2023/06/09 09:22:20;;;;;;;10.35;3.90;;;;;;;23.82;45.56;93707.31;5006112;28;20263;-86
2023/06/09 09:24:48;;;;;;;14.82;3.83;;;;;;;23.90;43.57;93701.81;5006362;28;20062;-88
2023/06/09 09:27:18;;;;;;;8.55;3.78;;;;;;;23.88;43.16;93706.88;4988938;28;20022;-87
2023/06/09 09:29:44;;;;;;;8.00;3.40;;;;;;;23.77;43.03;93694.16;5005903;28;20033;-86
2023/06/09 09:32:10;;;;;;;9.73;3.47;;;;;;;23.85;44.54;93696.78;4989009;28;20277;-86
2023/06/09 09:34:35;;;;;;;8.48;3.85;;;;;;;23.81;41.57;93696.81;5006050;28;20026;-85
2023/06/09 09:37:02;;;;;;;6.38;2.92;;;;;;;23.76;40.99;93689.84;4988403;28;20256;-86
2023/06/09 09:39:29;;;;;;;10.38;4.35;;;;;;;23.75;40.23;93685.59;5004883;28;20030;-85
2023/06/09 09:42:11;;;;;;;15.82;3.53;;;;;;;23.77;41.10;93688.69;5006026;28;20041;-85
2023/06/09 09:44:42;;;;;;;5.85;3.47;;;;;;;23.73;40.45;93692.56;4988653;28;20169;-87
2023/06/09 09:47:10;;;;;;;5.50;3.22;;;;;;;23.73;41.75;93690.66;5005587;28;20050;-87
2023/06/09 09:49:50;;;;;;;6.18;2.70;;;;;;;23.82;38.63;93695.66;5005838;28;20030;-88
2023/06/09 09:52:21;;;;;;;5.18;2.67;;;;;;;23.82;40.25;93688.25;5005826;28;20141;-87
2023/06/09 09:54:47;;;;;;;6.65;2.95;;;;;;;23.81;41.01;93685.94;5005943;28;20033;-89
2023/06/09 09:57:13;;;;;;;9.43;3.30;;;;;;;23.85;40.60;93683.19;5005992;28;20022;-86
2023/06/09 09:59:41;;;;;;;9.52;2.92;;;;;;;23.92;39.44;93691.31;5005541;28;20318;-89
2023/06/09 10:02:13;;;;;;;6.38;2.63;;;;;;;23.99;39.97;93677.63;5005518;28;20026;-88
2023/06/09 10:04:39;;;;;;;7.47;3.30;;;;;;;24.00;40.25;93674.50;4988022;28;20026;-85
2023/06/09 10:07:05;;;;;;;9.00;3.33;;;;;;;24.12;39.71;93670.50;4987885;28;20033;-87
2023/06/09 10:09:31;;;;;;;11.70;3.45;;;;;;;24.29;40.66;93676.16;4988165;28;20018;-86
2023/06/09 10:11:57;;;;;;;9.82;3.20;;;;;;;24.35;38.69;93666.38;5004908;28;20046;-87
2023/06/09 10:14:31;;;;;;;9.15;3.20;;;;;;;24.40;40.48;93676.81;5005204;28;20038;-85
2023/06/09 10:16:57;;;;;;;9.00;3.20;;;;;;;24.45;39.61;93662.75;5005169;28;20049;-86
2023/06/09 10:19:24;;;;;;;8.57;3.75;;;;;;;24.51;39.55;93669.34;5005073;28;20316;-86
2023/06/09 10:21:52;;;;;;;14.77;4.85;;;;;;;24.58;41.33;93665.75;4987702;28;20315;-86
2023/06/09 10:24:18;;;;;;;9.18;3.08;;;;;;;24.70;38.66;93669.91;4987518;28;20029;-86
2023/06/09 10:26:46;;;;;;;9.40;3.47;;;;;;;24.66;38.38;93658.28;5004948;28;20025;-86
2023/06/09 10:29:14;;;;;;;9.38;3.03;;;;;;;24.82;40.05;93661.94;5004692;28;20018;-80
2023/06/09 10:31:44;;;;;;;10.15;3.75;;;;;;;25.00;40.23;93661.72;5004824;28;20023;-81
2023/06/09 10:34:11;;;;;;;6.05;2.63;;;;;;;25.17;37.54;93653.72;5004803;28;20227;-81
2023/06/09 10:36:37;;;;;;;8.25;3.28;;;;;;;25.30;37.02;93659.41;5004713;28;20294;-81
2023/06/09 10:39:22;;;;;;;12.50;3.47;;;;;;;25.29;38.64;93655.13;5004613;28;20077;-83
2023/06/09 10:42:05;;;;;;;6.40;3.42;;;;;;;25.23;38.07;93650.13;5004551;28;20022;-82
2023/06/09 10:45:09;;;;;;;11.77;3.65;;;;;;;25.26;38.62;93642.31;5004716;28;20026;-82
2023/06/09 10:47:48;;;;;;;5.32;3.33;;;;;;;25.34;39.83;93646.47;4963749;29;20027;-82
2023/06/09 10:50:27;;;;;;;8.70;3.42;;;;;;;25.49;40.34;93649.78;4999355;28;20037;-81
2023/06/09 10:52:55;;;;;;;7.50;3.17;;;;;;;25.64;37.74;93648.34;5004502;28;20236;-81
2023/06/09 10:55:24;;;;;;;4.93;2.90;;;;;;;25.74;37.39;93639.22;5004745;28;20049;-81
2023/06/09 10:57:51;;;;;;;9.10;3.50;;;;;;;25.91;37.44;93636.63;5004298;28;20022;-79
2023/06/09 11:00:17;;;;;;;4.28;2.97;;;;;;;26.03;34.78;93638.75;5003825;28;20049;-79
2023/06/09 11:02:47;;;;;;;10.52;2.92;;;;;;;26.03;35.92;93644.22;5003739;28;20049;-80
2023/06/09 11:05:16;;;;;;;7.63;3.35;;;;;;;26.07;36.39;93631.28;5003773;28;20026;-82
2023/06/09 11:08:03;;;;;;;12.50;4.15;;;;;;;26.32;35.87;93630.06;4986578;28;20030;-77
2023/06/09 11:10:29;;;;;;;9.00;2.92;;;;;;;26.49;36.03;93626.19;4986457;28;20288;-78
2023/06/09 11:12:55;;;;;;;7.43;3.00;;;;;;;26.67;37.19;93619.66;4987598;28;20056;-78
2023/06/09 11:15:22;;;;;;;5.15;2.47;;;;;;;26.86;32.89;93624.31;5004230;28;20022;-78
2023/06/09 11:17:53;;;;;;;6.40;3.00;;;;;;;26.86;30.90;93612.59;5004371;28;20029;-81
2023/06/09 11:20:21;;;;;;;6.20;2.70;;;;;;;26.84;32.27;93617.72;5004071;28;20026;-87
2023/06/09 11:22:47;;;;;;;4.80;2.80;;;;;;;26.96;31.63;93612.38;4986448;28;20026;-86
2023/06/09 11:25:23;;;;;;;7.57;2.78;;;;;;;26.94;30.67;93624.94;4985047;28;20030;-84
2023/06/09 11:28:08;;;;;;;8.48;3.30;;;;;;;26.87;30.93;93614.13;5002700;28;20030;-85
2023/06/09 11:30:34;;;;;;;5.38;2.90;;;;;;;26.89;31.33;93618.00;5003640;28;20026;-84
2023/06/09 11:33:06;;;;;;;8.30;2.72;;;;;;;26.91;30.98;93612.88;5003859;28;20216;-85
2023/06/09 11:35:32;;;;;;;7.78;3.08;;;;;;;26.93;31.59;93613.22;5003464;28;20224;-84
2023/06/09 11:37:59;;;;;;;7.95;3.15;;;;;;;26.98;31.55;93609.97;4986174;28;20022;-85
2023/06/09 11:40:27;;;;;;;8.15;3.38;;;;;;;27.01;32.27;93611.88;5003754;28;20025;-85